Time;durP1;ratioP1;P1;durP2;ratioP2;P2;SDS_P1;SDS_P2;PMS_P1;PMS_P2;Temp;Humidity;BMP_temperature;BMP_pressure;BME280_temperature;BME280_humidity;BME280_pressure;Samples;Min_cycle;Max_cycle;Signal;HPM_P1;HPM_P2
2022/08/05 00:01:52;;;;;;;4.80;1.27;;;19.70;60.00;;;;;;4901416;29;20045;-75
2022/08/05 00:04:18;;;;;;;2.55;0.93;;;19.70;59.60;;;;;;4901410;29;20040;-76
2022/08/05 00:06:44;;;;;;;2.10;0.80;;;19.60;59.80;;;;;;4901226;29;20032;-75
2022/08/05 00:09:10;;;;;;;2.70;1.38;;;19.60;60.10;;;;;;4919815;29;20060;-75
2022/08/05 00:11:35;;;;;;;4.00;0.98;;;19.60;60.20;;;;;;4939340;29;20095;-75
2022/08/05 00:14:04;;;;;;;4.30;1.17;;;19.50;60.10;;;;;;4905628;29;20120;-75
2022/08/05 00:16:30;;;;;;;1.95;0.98;;;19.50;60.50;;;;;;4901178;29;20032;-75
2022/08/05 00:18:55;;;;;;;1.83;0.77;;;19.50;60.30;;;;;;4900040;29;20123;-76
2022/08/05 00:21:21;;;;;;;3.67;0.90;;;19.50;60.20;;;;;;4901558;29;20036;-75
2022/08/05 00:23:47;;;;;;;3.90;1.00;;;19.50;60.10;;;;;;4900890;29;20052;-75
2022/08/05 00:26:14;;;;;;;4.82;1.10;;;19.40;60.40;;;;;;4901524;29;20036;-75
2022/08/05 00:28:40;;;;;;;3.78;1.33;;;19.40;60.60;;;;;;4901192;29;20079;-75
2022/08/05 00:31:06;;;;;;;3.78;0.98;;;19.50;60.30;;;;;;4900897;29;20111;-75
2022/08/05 00:33:33;;;;;;;3.15;1.30;;;19.40;60.60;;;;;;4900727;29;20116;-75
2022/08/05 00:35:59;;;;;;;3.67;1.02;;;19.40;60.80;;;;;;4900438;29;20037;-75
2022/08/05 00:38:26;;;;;;;2.50;1.02;;;19.30;60.90;;;;;;4900962;29;20169;-75
2022/08/05 00:40:54;;;;;;;4.35;1.13;;;19.40;60.60;;;;;;4900714;29;20396;-76
2022/08/05 00:43:20;;;;;;;1.95;0.85;;;19.40;60.80;;;;;;4900834;29;20062;-75
2022/08/05 00:45:46;;;;;;;4.90;1.00;;;19.50;60.50;;;;;;4913977;29;20039;-75
2022/08/05 00:48:22;;;;;;;2.75;1.13;;;19.50;60.60;;;;;;4915459;29;20035;-75
2022/08/05 00:50:50;;;;;;;2.63;1.00;;;19.40;60.90;;;;;;4900771;29;20112;-77
2022/08/05 00:53:31;;;;;;;;;;;;;;;;;;;;;
2022/08/05 00:55:57;;;;;;;3.25;1.20;;;19.40;60.90;;;;;;4900669;29;20027;-76
2022/08/05 00:58:22;;;;;;;5.38;1.40;;;19.30;61.10;;;;;;4900699;29;20056;-76
2022/08/05 01:00:48;;;;;;;2.25;0.90;;;19.30;61.20;;;;;;4899277;29;20067;-77
2022/08/05 01:03:14;;;;;;;3.20;0.90;;;19.20;61.10;;;;;;4914911;29;20064;-77
2022/08/05 01:05:39;;;;;;;2.90;1.20;;;19.30;61.20;;;;;;4900473;29;20031;-76
2022/08/05 01:08:05;;;;;;;5.95;1.05;;;19.20;61.30;;;;;;4914948;29;20075;-77
2022/08/05 01:10:42;;;;;;;4.22;1.35;;;19.20;61.70;;;;;;4925051;29;20023;-76
2022/08/05 01:13:15;;;;;;;3.67;0.95;;;19.20;61.60;;;;;;4938240;29;20028;-76
2022/08/05 01:15:46;;;;;;;3.33;1.58;;;19.10;61.70;;;;;;4938396;29;20031;-76
2022/08/05 01:18:21;;;;;;;2.65;1.08;;;19.10;61.70;;;;;;4945397;29;20636;-77
2022/08/05 01:21:11;;;;;;;2.40;1.17;;;19.10;61.90;;;;;;4900632;29;20025;-77
2022/08/05 01:23:55;;;;;;;3.67;0.98;;;19.00;61.90;;;;;;4900354;29;20144;-76
2022/08/05 01:26:48;;;;;;;7.13;0.93;;;19.00;62.30;;;;;;4935926;29;20042;-76
2022/08/05 01:29:22;;;;;;;3.50;1.10;;;18.90;62.60;;;;;;4903394;29;20036;-77
2022/08/05 01:31:51;;;;;;;5.40;1.27;;;18.80;62.70;;;;;;4899026;29;20497;-76
2022/08/05 01:34:47;;;;;;;4.13;1.10;;;18.80;62.80;;;;;;4900168;29;20029;-77
2022/08/05 01:37:23;;;;;;;3.45;1.00;;;18.80;63.10;;;;;;4900380;29;20028;-76
2022/08/05 01:39:53;;;;;;;7.00;1.73;;;18.80;63.10;;;;;;4914595;29;20111;-77
2022/08/05 01:42:19;;;;;;;;;;;18.70;63.40;;;;;;4900469;29;20033;-77
2022/08/05 01:44:50;;;;;;;6.85;1.25;;;18.70;63.70;;;;;;4900138;29;19918;-76
2022/08/05 01:47:18;;;;;;;5.32;1.45;;;18.70;63.70;;;;;;4915554;29;20020;-76
2022/08/05 01:49:46;;;;;;;1.90;1.00;;;18.70;63.30;;;;;;4903452;29;20021;-76
2022/08/05 01:52:14;;;;;;;4.47;1.00;;;18.60;63.30;;;;;;4917238;29;20033;-76
2022/08/05 01:54:43;;;;;;;7.82;1.23;;;18.60;63.40;;;;;;4918083;29;20100;-77
2022/08/05 01:57:11;;;;;;;3.78;0.95;;;18.60;63.70;;;;;;4903854;29;20433;-76
2022/08/05 01:59:39;;;;;;;6.10;1.00;;;18.60;63.80;;;;;;4903679;29;20139;-77
2022/08/05 02:02:09;;;;;;;7.03;1.27;;;18.50;64.00;;;;;;4903662;29;20867;-76
2022/08/05 02:04:39;;;;;;;1.60;0.90;;;18.40;64.60;;;;;;4903878;29;20042;-76
2022/08/05 02:07:05;;;;;;;2.33;1.08;;;18.40;64.60;;;;;;4903758;29;20041;-76
2022/08/05 02:09:31;;;;;;;2.10;1.13;;;18.40;64.20;;;;;;4912167;29;20114;-76
2022/08/05 02:12:08;;;;;;;4.25;0.90;;;18.40;64.30;;;;;;4941497;29;20567;-76
2022/08/05 02:15:16;;;;;;;7.90;1.85;;;18.40;64.50;;;;;;4941393;29;20023;-76
2022/08/05 02:17:51;;;;;;;3.78;1.20;;;18.30;64.50;;;;;;4930294;29;20420;-76
2022/08/05 02:20:32;;;;;;;4.75;1.23;;;18.30;64.60;;;;;;4918215;29;20036;-76
2022/08/05 02:23:01;;;;;;;3.92;1.17;;;18.30;64.30;;;;;;4903336;29;20499;-76
2022/08/05 02:25:32;;;;;;;1.87;1.00;;;18.30;64.60;;;;;;4902633;29;20576;-76
2022/08/05 02:28:00;;;;;;;2.10;1.10;;;18.20;64.70;;;;;;4903007;29;20309;-76
2022/08/05 02:30:35;;;;;;;5.55;1.33;;;18.30;64.50;;;;;;4903332;29;20044;-76
2022/08/05 02:33:02;;;;;;;5.88;1.02;;;18.20;64.70;;;;;;4916570;29;20500;-76
2022/08/05 02:35:31;;;;;;;6.95;1.10;;;18.20;64.70;;;;;;4903187;29;20041;-76
2022/08/05 02:37:58;;;;;;;5.00;0.90;;;18.20;65.00;;;;;;4902861;29;20033;-76
2022/08/05 02:40:25;;;;;;;6.50;1.30;;;18.10;65.10;;;;;;4903222;29;20584;-76
2022/08/05 02:42:52;;;;;;;1.85;0.98;;;18.10;64.90;;;;;;4902455;29;20028;-76
2022/08/05 02:45:20;;;;;;;5.80;0.90;;;18.10;65.30;;;;;;4902868;29;20032;-77
2022/08/05 02:47:47;;;;;;;1.88;0.90;;;18.10;65.20;;;;;;4902976;29;20024;-76
2022/08/05 02:50:13;;;;;;;6.40;1.23;;;18.10;64.80;;;;;;4903030;29;20056;-76
2022/08/05 02:52:40;;;;;;;3.10;1.10;;;18.10;65.20;;;;;;4902902;29;20107;-76
2022/08/05 02:55:08;;;;;;;2.42;0.88;;;18.10;64.90;;;;;;4902720;29;20037;-76
2022/08/05 02:57:37;;;;;;;6.63;1.10;;;18.10;65.00;;;;;;4917565;29;20032;-77
2022/08/05 03:00:03;;;;;;;8.77;1.20;;;18.00;65.20;;;;;;4916763;29;20037;-77
2022/08/05 03:02:39;;;;;;;2.03;0.90;;;18.00;65.20;;;;;;4901721;29;20140;-76
2022/08/05 03:05:08;;;;;;;6.30;1.00;;;18.00;65.10;;;;;;4916177;29;20045;-76
2022/08/05 03:07:35;;;;;;;3.00;1.17;;;18.00;65.00;;;;;;4902754;29;20024;-76
2022/08/05 03:10:19;;;;;;;5.25;1.95;;;18.00;65.00;;;;;;4919723;29;20027;-76
2022/08/05 03:12:46;;;;;;;7.25;1.23;;;17.90;65.20;;;;;;4923292;29;20485;-76
2022/08/05 03:15:11;;;;;;;4.88;1.83;;;17.90;65.10;;;;;;4916484;29;20032;-76
2022/08/05 03:17:37;;;;;;;3.47;1.20;;;18.00;65.20;;;;;;4900819;29;20032;-76
2022/08/05 03:20:04;;;;;;;4.57;1.00;;;17.90;65.50;;;;;;4902361;29;20112;-77
2022/08/05 03:22:30;;;;;;;6.35;1.40;;;17.90;65.30;;;;;;4916947;29;20036;-76
2022/08/05 03:24:56;;;;;;;4.15;1.08;;;17.90;65.40;;;;;;4902048;29;20032;-77
2022/08/05 03:27:22;;;;;;;2.67;0.80;;;17.90;65.50;;;;;;4902328;29;20028;-76
2022/08/05 03:29:48;;;;;;;2.25;1.20;;;17.80;65.50;;;;;;4916940;29;20469;-76
2022/08/05 03:32:14;;;;;;;3.05;1.15;;;17.80;65.30;;;;;;4901851;29;20063;-76
2022/08/05 03:34:42;;;;;;;5.57;1.20;;;17.80;65.70;;;;;;4900659;29;20131;-76
2022/08/05 03:37:08;;;;;;;5.72;1.27;;;17.80;65.60;;;;;;4901854;29;20919;-76
2022/08/05 03:39:33;;;;;;;2.63;0.93;;;17.80;65.80;;;;;;4902072;29;20079;-77
2022/08/05 03:41:59;;;;;;;3.55;0.93;;;17.80;65.40;;;;;;4902058;29;20036;-76
2022/08/05 03:44:25;;;;;;;3.47;1.48;;;17.80;65.90;;;;;;4901834;29;20096;-76
2022/08/05 03:46:51;;;;;;;1.58;1.00;;;17.80;65.60;;;;;;4915159;29;20862;-76
2022/08/05 03:49:17;;;;;;;4.43;1.27;;;17.80;65.50;;;;;;4901852;29;20024;-76
2022/08/05 03:51:52;;;;;;;5.38;1.20;;;17.80;65.30;;;;;;4900351;29;20025;-76
2022/08/05 03:54:24;;;;;;;5.68;1.23;;;17.60;65.80;;;;;;4901555;29;20036;-76
2022/08/05 03:56:49;;;;;;;3.17;0.90;;;17.60;66.20;;;;;;4901948;29;20080;-76
2022/08/05 03:59:31;;;;;;;3.67;1.02;;;17.60;65.90;;;;;;4900176;29;20033;-76
2022/08/05 04:01:59;;;;;;;3.35;1.20;;;17.50;66.20;;;;;;4901413;29;20057;-76
2022/08/05 04:04:27;;;;;;;4.72;1.17;;;17.50;66.20;;;;;;4915830;29;20037;-76
2022/08/05 04:06:53;;;;;;;4.90;1.33;;;17.40;66.60;;;;;;4901568;29;20405;-76
2022/08/05 04:09:19;;;;;;;5.97;1.20;;;17.40;66.50;;;;;;4922295;29;20051;-76
2022/08/05 04:11:44;;;;;;;6.18;1.30;;;17.40;66.80;;;;;;4937769;29;20043;-76
2022/08/05 04:14:10;;;;;;;2.20;0.82;;;17.40;66.70;;;;;;4922586;29;20064;-76
2022/08/05 04:16:36;;;;;;;7.75;1.67;;;17.40;66.70;;;;;;4915956;29;20123;-76
2022/08/05 04:19:03;;;;;;;5.82;1.40;;;17.30;66.70;;;;;;4901476;29;20028;-77
2022/08/05 04:21:29;;;;;;;2.60;1.17;;;17.30;67.00;;;;;;4901044;29;20032;-76
2022/08/05 04:23:57;;;;;;;5.75;1.40;;;17.30;66.60;;;;;;4901254;29;20032;-77
2022/08/05 04:26:23;;;;;;;4.32;1.02;;;17.30;66.70;;;;;;4901164;29;20056;-76
2022/08/05 04:28:49;;;;;;;3.72;1.30;;;17.30;66.70;;;;;;4900931;29;20020;-77
2022/08/05 04:31:14;;;;;;;3.72;1.08;;;17.30;67.00;;;;;;4900808;29;20115;-76
2022/08/05 04:33:40;;;;;;;4.00;1.08;;;17.30;67.10;;;;;;4900836;29;20036;-76
2022/08/05 04:36:07;;;;;;;1.85;0.90;;;17.30;66.90;;;;;;4915553;29;20077;-76
2022/08/05 04:38:32;;;;;;;4.50;1.17;;;17.30;66.80;;;;;;4901122;29;20031;-76
2022/08/05 04:40:58;;;;;;;6.40;1.75;;;17.20;66.90;;;;;;4912331;29;20032;-78
2022/08/05 04:43:24;;;;;;;3.75;1.13;;;17.30;66.90;;;;;;4927392;29;20484;-77
2022/08/05 04:45:49;;;;;;;2.65;1.23;;;17.20;67.20;;;;;;4917674;29;20056;-77
2022/08/05 04:48:15;;;;;;;4.65;1.50;;;17.20;67.30;;;;;;4920071;29;20028;-76
2022/08/05 04:50:47;;;;;;;4.07;1.25;;;17.20;67.30;;;;;;4904742;29;20043;-77
2022/08/05 04:53:15;;;;;;;7.78;1.55;;;17.20;67.50;;;;;;4901071;29;20125;-77
2022/08/05 04:55:42;;;;;;;3.30;1.13;;;17.10;67.60;;;;;;4900855;29;20093;-77
2022/08/05 04:58:12;;;;;;;4.47;1.33;;;17.20;67.50;;;;;;4915383;29;20037;-77
2022/08/05 05:00:39;;;;;;;2.75;0.93;;;17.20;67.30;;;;;;4900903;29;20124;-78
2022/08/05 05:03:06;;;;;;;4.55;1.40;;;17.20;67.40;;;;;;4915064;29;20048;-76
2022/08/05 05:05:32;;;;;;;1.27;0.90;;;17.20;67.30;;;;;;4900623;29;20033;-78
2022/08/05 05:08:03;;;;;;;4.47;1.55;;;17.20;67.10;;;;;;4914139;29;20035;-76
2022/08/05 05:10:40;;;;;;;3.90;1.15;;;17.20;67.60;;;;;;4915735;29;20134;-77
2022/08/05 05:13:07;;;;;;;5.68;1.48;;;17.10;67.30;;;;;;4916211;29;20024;-77
2022/08/05 05:15:33;;;;;;;8.75;1.42;;;17.10;67.40;;;;;;4916489;29;20028;-77
2022/08/05 05:17:59;;;;;;;3.70;1.17;;;17.10;67.80;;;;;;4916242;29;20039;-77
2022/08/05 05:20:24;;;;;;;4.82;0.90;;;17.10;67.40;;;;;;4918750;29;20091;-77
2022/08/05 05:22:50;;;;;;;3.65;0.98;;;17.10;67.80;;;;;;4918854;29;20028;-77
2022/08/05 05:25:15;;;;;;;8.48;1.30;;;17.10;67.80;;;;;;4919236;29;20028;-77
2022/08/05 05:27:41;;;;;;;1.90;1.30;;;17.10;67.60;;;;;;4906518;29;20100;-77
2022/08/05 05:30:07;;;;;;;2.53;0.88;;;17.10;67.40;;;;;;4900642;29;20028;-77
2022/08/05 05:32:33;;;;;;;2.75;1.33;;;17.00;67.80;;;;;;4916419;29;20496;-77
2022/08/05 05:34:59;;;;;;;3.78;1.15;;;17.10;67.40;;;;;;4918991;29;20058;-77
2022/08/05 05:37:24;;;;;;;6.93;1.65;;;17.10;67.50;;;;;;4918199;29;20028;-77
2022/08/05 05:39:50;;;;;;;6.72;1.40;;;17.10;67.40;;;;;;4904350;29;20469;-77
2022/08/05 05:42:16;;;;;;;3.95;1.30;;;17.10;68.00;;;;;;4914503;29;20040;-77
2022/08/05 05:44:41;;;;;;;10.10;1.60;;;17.10;68.10;;;;;;4900019;29;20045;-77
2022/08/05 05:47:07;;;;;;;4.90;1.70;;;17.00;68.10;;;;;;4914544;29;20037;-77
2022/08/05 05:49:33;;;;;;;3.65;1.20;;;17.10;67.70;;;;;;4899973;29;20513;-77
2022/08/05 05:51:58;;;;;;;5.22;1.20;;;17.10;67.80;;;;;;4900201;29;20021;-77
2022/08/05 05:54:24;;;;;;;3.47;1.25;;;17.10;67.80;;;;;;4900051;29;20051;-77
2022/08/05 05:56:50;;;;;;;6.55;1.20;;;17.10;67.80;;;;;;4900028;29;20233;-77
2022/08/05 05:59:15;;;;;;;3.72;1.35;;;17.10;68.10;;;;;;4899848;29;20060;-77
2022/08/05 06:01:41;;;;;;;4.40;0.93;;;17.10;68.00;;;;;;4899624;29;20554;-77
2022/08/05 06:04:11;;;;;;;4.00;1.20;;;17.10;68.10;;;;;;4914410;29;20037;-77
2022/08/05 06:06:39;;;;;;;2.78;1.13;;;17.20;68.00;;;;;;4899942;29;20134;-77
2022/08/05 06:09:05;;;;;;;5.47;1.35;;;17.20;68.00;;;;;;4917179;29;20033;-77
2022/08/05 06:11:31;;;;;;;3.60;1.55;;;17.20;67.90;;;;;;4937939;29;20051;-77
2022/08/05 06:13:58;;;;;;;4.57;1.25;;;17.20;68.00;;;;;;4932483;29;20046;-77
2022/08/05 06:16:24;;;;;;;7.22;1.70;;;17.30;68.10;;;;;;4927294;29;20063;-77
2022/08/05 06:18:49;;;;;;;6.45;1.30;;;17.30;67.80;;;;;;4918555;29;20020;-77
2022/08/05 06:21:17;;;;;;;5.18;1.20;;;17.30;67.60;;;;;;4933040;29;20031;-77
2022/08/05 06:23:42;;;;;;;5.03;1.20;;;17.30;67.80;;;;;;4913494;29;20055;-77
2022/08/05 06:26:08;;;;;;;4.32;1.27;;;17.40;67.90;;;;;;4913946;29;20036;-77
2022/08/05 06:28:34;;;;;;;3.38;1.33;;;17.40;68.70;;;;;;4899777;29;20392;-77
2022/08/05 06:30:59;;;;;;;7.15;1.40;;;17.40;68.90;;;;;;4916315;29;20729;-77
2022/08/05 06:33:25;;;;;;;4.18;1.50;;;17.50;68.30;;;;;;4903310;29;20040;-77
2022/08/05 06:35:51;;;;;;;7.40;1.50;;;17.50;68.40;;;;;;4902437;29;20059;-77
2022/08/05 06:38:16;;;;;;;4.80;1.20;;;17.50;68.50;;;;;;4914389;29;20032;-76
2022/08/05 06:40:42;;;;;;;4.13;1.40;;;17.60;67.90;;;;;;4919207;29;20028;-77
2022/08/05 06:43:08;;;;;;;6.50;1.52;;;17.60;68.50;;;;;;4920648;29;20042;-77
2022/08/05 06:45:34;;;;;;;6.78;1.42;;;17.60;68.70;;;;;;4921545;29;20032;-77
2022/08/05 06:47:59;;;;;;;4.70;1.27;;;17.70;68.40;;;;;;4918997;29;20055;-77
2022/08/05 06:50:25;;;;;;;3.70;1.23;;;17.80;67.80;;;;;;4917202;29;20080;-77
2022/08/05 06:52:51;;;;;;;5.05;1.75;;;17.80;67.40;;;;;;4917086;29;20028;-77
2022/08/05 06:55:17;;;;;;;6.72;1.40;;;17.80;67.60;;;;;;4902669;29;20042;-77
2022/08/05 06:57:43;;;;;;;6.38;1.30;;;17.90;67.20;;;;;;4902599;29;20084;-78
2022/08/05 07:00:09;;;;;;;9.65;1.45;;;18.00;66.90;;;;;;4902707;29;20080;-77
2022/08/05 07:02:42;;;;;;;5.43;1.08;;;18.10;67.20;;;;;;4901844;29;20509;-77
2022/08/05 07:05:08;;;;;;;6.32;1.33;;;18.10;67.00;;;;;;4902686;29;20035;-77
2022/08/05 07:07:34;;;;;;;8.80;1.55;;;18.20;66.80;;;;;;4916794;29;20029;-77
2022/08/05 07:09:59;;;;;;;5.68;0.93;;;18.30;66.20;;;;;;4919333;29;20056;-77
2022/08/05 07:17:53;;;;;;;4.35;1.10;;;18.60;65.50;;;;;;4902643;29;20069;-77
2022/08/05 07:20:19;;;;;;;3.83;1.05;;;19.20;63.80;;;;;;4902182;29;20029;-78
2022/08/05 07:22:45;;;;;;;6.82;1.20;;;21.70;58.20;;;;;;4902284;29;20040;-76
2022/08/05 07:25:10;;;;;;;5.43;0.98;;;25.10;48.70;;;;;;4916249;29;20064;-76
2022/08/05 07:27:36;;;;;;;4.45;1.20;;;27.80;42.20;;;;;;4902337;29;20029;-76
2022/08/05 07:30:01;;;;;;;3.28;0.90;;;29.70;37.90;;;;;;4901950;29;20504;-76
2022/08/05 07:32:27;;;;;;;3.85;0.90;;;31.00;35.80;;;;;;4901740;29;20037;-76
2022/08/05 07:34:53;;;;;;;3.20;0.93;;;32.10;33.10;;;;;;4901618;29;20112;-76
2022/08/05 07:37:18;;;;;;;4.43;0.73;;;33.10;32.00;;;;;;4915456;29;20513;-76
2022/08/05 07:39:44;;;;;;;3.28;0.60;;;33.10;32.30;;;;;;4901665;29;20520;-76
2022/08/05 07:42:10;;;;;;;5.53;1.30;;;34.10;30.30;;;;;;4916349;29;20033;-76
2022/08/05 07:44:35;;;;;;;7.32;0.98;;;34.90;28.90;;;;;;4915971;29;20032;-76
2022/08/05 07:47:01;;;;;;;2.92;0.80;;;35.50;28.10;;;;;;4901460;29;20475;-76
2022/08/05 07:49:26;;;;;;;5.80;0.88;;;35.90;27.90;;;;;;4901355;29;20091;-76
2022/08/05 07:51:52;;;;;;;4.30;0.95;;;36.60;26.10;;;;;;4902090;29;20083;-76
2022/08/05 07:54:19;;;;;;;4.97;1.10;;;36.50;26.60;;;;;;4901242;29;20033;-76
2022/08/05 07:56:45;;;;;;;3.75;0.80;;;36.80;26.40;;;;;;4901743;29;20028;-76
2022/08/05 07:59:10;;;;;;;4.88;0.85;;;36.20;26.60;;;;;;4901596;29;20484;-76
2022/08/05 08:01:36;;;;;;;2.65;0.93;;;35.20;27.30;;;;;;4915852;29;20068;-76
2022/08/05 08:04:02;;;;;;;2.60;0.82;;;36.10;26.70;;;;;;4901471;29;20048;-76
2022/08/05 08:06:29;;;;;;;5.45;0.85;;;35.30;27.60;;;;;;4915817;29;20040;-76
2022/08/05 08:08:55;;;;;;;6.72;0.95;;;36.40;26.30;;;;;;4901025;29;20024;-76
2022/08/05 08:11:20;;;;;;;3.90;1.13;;;37.30;25.40;;;;;;4920377;29;20103;-77
2022/08/05 08:13:46;;;;;;;6.78;1.08;;;37.50;23.50;;;;;;4920209;29;20058;-77
2022/08/05 08:16:12;;;;;;;4.72;1.02;;;38.00;24.30;;;;;;4917944;29;20133;-77
2022/08/05 08:18:38;;;;;;;3.13;1.00;;;39.00;23.10;;;;;;4901418;29;20029;-77
2022/08/05 08:21:04;;;;;;;4.85;1.05;;;39.50;22.60;;;;;;4906858;29;20051;-77
2022/08/05 08:23:30;;;;;;;4.75;0.90;;;39.80;21.60;;;;;;4900872;29;20036;-77
2022/08/05 08:25:56;;;;;;;6.60;0.90;;;40.10;21.70;;;;;;4901068;29;20029;-77
2022/08/05 08:28:21;;;;;;;2.40;0.80;;;40.70;21.40;;;;;;4900772;29;20031;-77
2022/08/05 08:30:47;;;;;;;7.90;1.33;;;39.90;21.80;;;;;;4900954;29;20047;-77
2022/08/05 08:33:12;;;;;;;5.60;0.85;;;38.10;22.90;;;;;;4901088;29;20389;-76
2022/08/05 08:35:38;;;;;;;2.95;0.82;;;37.40;23.90;;;;;;4900507;29;20052;-76
2022/08/05 08:38:04;;;;;;;6.57;1.15;;;37.90;23.40;;;;;;4900856;29;20052;-76
2022/08/05 08:40:34;;;;;;;3.47;0.90;;;38.40;22.70;;;;;;4900839;29;20032;-76
2022/08/05 08:43:01;;;;;;;4.82;1.25;;;39.20;22.30;;;;;;4900962;29;20025;-76
2022/08/05 08:45:28;;;;;;;5.70;0.88;;;39.90;21.90;;;;;;4900259;29;20040;-77
2022/08/05 08:47:55;;;;;;;3.88;0.90;;;40.10;21.40;;;;;;4900566;29;20033;-76
2022/08/05 08:50:21;;;;;;;3.87;1.10;;;39.50;22.10;;;;;;4900663;29;20032;-76
2022/08/05 08:52:53;;;;;;;6.70;1.15;;;39.80;21.70;;;;;;4900091;29;20288;-76
2022/08/05 08:55:19;;;;;;;4.68;0.90;;;39.60;21.80;;;;;;4900156;29;20056;-76
2022/08/05 08:57:48;;;;;;;3.85;0.80;;;39.80;21.30;;;;;;4898545;29;20040;-77
2022/08/05 09:00:15;;;;;;;3.40;0.82;;;39.80;21.30;;;;;;4900495;29;20131;-77
2022/08/05 09:02:41;;;;;;;3.78;1.00;;;39.50;21.30;;;;;;4900043;29;20060;-77
2022/08/05 09:05:10;;;;;;;2.55;0.60;;;39.80;21.60;;;;;;4900192;29;20028;-77
2022/08/05 09:07:36;;;;;;;5.22;1.00;;;40.20;21.60;;;;;;4914920;29;20123;-77
2022/08/05 09:10:03;;;;;;;5.75;0.90;;;40.10;20.90;;;;;;4905801;29;20063;-77
2022/08/05 09:12:29;;;;;;;5.17;1.10;;;39.80;20.90;;;;;;4900574;29;20029;-77
2022/08/05 09:14:54;;;;;;;5.55;1.17;;;39.90;20.00;;;;;;4901870;29;20032;-77
2022/08/05 09:17:20;;;;;;;4.35;1.00;;;38.90;21.80;;;;;;4914119;29;20028;-76
2022/08/05 09:19:46;;;;;;;3.35;1.17;;;39.40;21.50;;;;;;4900424;29;20035;-77
2022/08/05 09:22:11;;;;;;;4.80;1.00;;;39.40;20.50;;;;;;4900493;29;20468;-76
2022/08/05 09:24:37;;;;;;;4.00;0.90;;;36.70;23.50;;;;;;4899243;29;20411;-76
2022/08/05 09:27:07;;;;;;;7.18;0.82;;;36.50;23.40;;;;;;4900580;29;20400;-76
2022/08/05 09:29:41;;;;;;;3.13;0.70;;;37.30;23.40;;;;;;4900110;29;20103;-76
2022/08/05 09:32:09;;;;;;;2.42;0.70;;;37.90;23.30;;;;;;4899300;29;20035;-76
2022/08/05 09:34:47;;;;;;;3.80;1.10;;;37.80;22.80;;;;;;4900190;29;20029;-77
2022/08/05 09:37:24;;;;;;;4.95;1.10;;;38.70;22.90;;;;;;4899828;29;20115;-77
2022/08/05 09:39:50;;;;;;;3.35;0.60;;;39.30;22.00;;;;;;4900151;29;20559;-77
2022/08/05 09:42:18;;;;;;;4.90;0.90;;;39.10;21.40;;;;;;4900234;29;20088;-76
2022/08/05 09:44:48;;;;;;;2.30;0.68;;;37.30;22.80;;;;;;4899628;29;20152;-77
2022/08/05 09:47:19;;;;;;;2.95;0.82;;;37.90;22.00;;;;;;4914457;29;20043;-76
2022/08/05 09:49:46;;;;;;;4.95;1.38;;;38.50;22.30;;;;;;4899741;29;20029;-76
2022/08/05 09:52:31;;;;;;;4.60;1.00;;;39.10;22.00;;;;;;4900060;29;20025;-76
2022/08/05 09:55:06;;;;;;;5.88;1.33;;;39.70;21.00;;;;;;4914193;29;20093;-76
2022/08/05 09:57:45;;;;;;;3.22;0.90;;;40.10;20.90;;;;;;4899797;29;20051;-76
2022/08/05 10:00:23;;;;;;;4.45;0.80;;;39.70;20.20;;;;;;4899804;29;20029;-76
2022/08/05 10:02:54;;;;;;;3.33;0.90;;;39.00;21.10;;;;;;4914192;29;20060;-76
2022/08/05 10:05:23;;;;;;;3.45;0.80;;;38.70;21.50;;;;;;4899605;29;20575;-76
2022/08/05 10:07:54;;;;;;;3.85;0.90;;;38.40;22.10;;;;;;4899807;29;20365;-76
2022/08/05 10:10:43;;;;;;;3.47;0.65;;;38.60;21.60;;;;;;4924280;29;20024;-76
2022/08/05 10:13:08;;;;;;;5.28;0.80;;;38.30;21.60;;;;;;4929427;29;20044;-76
2022/08/05 10:15:39;;;;;;;3.35;0.90;;;38.00;22.10;;;;;;4908380;29;20052;-76
2022/08/05 10:18:14;;;;;;;5.28;0.98;;;37.40;22.50;;;;;;4917561;29;20040;-76
2022/08/05 10:20:50;;;;;;;6.18;0.90;;;36.90;22.90;;;;;;4917530;29;20024;-76
2022/08/05 10:23:25;;;;;;;2.85;0.70;;;36.80;22.70;;;;;;4903374;29;20043;-76
2022/08/05 10:25:51;;;;;;;3.17;0.82;;;35.20;24.60;;;;;;4903240;29;20076;-76
2022/08/05 10:28:17;;;;;;;3.55;0.93;;;35.10;24.70;;;;;;4903076;29;20029;-76
2022/08/05 10:30:43;;;;;;;3.58;0.90;;;35.00;25.10;;;;;;4903000;29;20025;-76
2022/08/05 10:33:09;;;;;;;6.35;0.93;;;33.60;25.90;;;;;;4903625;29;20032;-76
2022/08/05 10:35:36;;;;;;;5.18;0.77;;;34.40;26.10;;;;;;4921420;29;20039;-76
2022/08/05 10:38:03;;;;;;;4.65;0.90;;;34.50;25.90;;;;;;4917739;29;20654;-76
2022/08/05 10:40:42;;;;;;;5.70;1.03;;;34.10;26.60;;;;;;4902852;29;20122;-76
2022/08/05 10:43:33;;;;;;;2.75;0.60;;;33.80;27.20;;;;;;4902880;29;20036;-76
2022/08/05 10:46:04;;;;;;;4.22;0.77;;;32.90;28.10;;;;;;4917002;29;20040;-76
2022/08/05 10:48:34;;;;;;;1.67;0.60;;;31.80;28.90;;;;;;4917368;29;20036;-76
2022/08/05 10:51:09;;;;;;;5.10;0.70;;;31.50;29.70;;;;;;4903141;29;20057;-76
2022/08/05 10:53:37;;;;;;;3.58;0.88;;;31.10;29.90;;;;;;4902662;29;20024;-76
2022/08/05 10:56:04;;;;;;;4.15;1.00;;;30.60;30.20;;;;;;4902791;29;20031;-76
2022/08/05 10:58:30;;;;;;;3.85;0.70;;;30.40;30.30;;;;;;4902409;29;20546;-76
2022/08/05 11:00:55;;;;;;;3.80;1.00;;;30.20;31.00;;;;;;4902629;29;20032;-75
2022/08/05 11:03:21;;;;;;;5.50;0.77;;;30.30;31.60;;;;;;4917009;29;20033;-76
2022/08/05 11:06:12;;;;;;;2.55;0.80;;;29.80;30.80;;;;;;4902287;29;20068;-76
2022/08/05 11:08:58;;;;;;;2.17;0.80;;;29.80;32.20;;;;;;4902591;29;20036;-76
2022/08/05 11:11:36;;;;;;;3.10;1.13;;;30.00;31.50;;;;;;4905426;29;20037;-76
2022/08/05 11:14:03;;;;;;;2.70;0.77;;;30.20;31.40;;;;;;4902367;29;20096;-76
2022/08/05 11:16:29;;;;;;;5.20;1.08;;;30.00;31.10;;;;;;4902275;29;20122;-76
2022/08/05 11:19:27;;;;;;;5.65;0.70;;;29.90;31.20;;;;;;4902091;29;20028;-76
2022/08/05 11:21:55;;;;;;;3.42;0.68;;;29.80;31.00;;;;;;4901938;29;20037;-74
2022/08/05 11:24:22;;;;;;;2.53;0.70;;;29.70;31.20;;;;;;4916845;29;20028;-75
2022/08/05 11:26:49;;;;;;;2.35;0.80;;;29.40;31.10;;;;;;4915650;29;20088;-76
2022/08/05 11:29:36;;;;;;;3.17;0.77;;;29.10;31.60;;;;;;4919376;29;20503;-76
2022/08/05 11:32:28;;;;;;;5.43;1.80;;;29.00;32.00;;;;;;4920631;29;20028;-76
2022/08/05 11:34:56;;;;;;;3.72;0.85;;;29.20;31.70;;;;;;4910952;29;20036;-76
2022/08/05 11:37:53;;;;;;;2.03;0.70;;;29.00;31.40;;;;;;4910717;29;20095;-76
2022/08/05 11:40:19;;;;;;;3.25;0.80;;;29.40;30.90;;;;;;4912878;29;20044;-76
2022/08/05 11:42:45;;;;;;;3.50;0.70;;;29.50;30.80;;;;;;4918747;29;20095;-76
2022/08/05 11:45:11;;;;;;;3.38;1.20;;;29.50;30.30;;;;;;4910562;29;20087;-76
2022/08/05 11:47:37;;;;;;;3.00;0.80;;;29.20;30.20;;;;;;4920882;29;20032;-76
2022/08/05 11:50:04;;;;;;;3.13;0.70;;;29.20;30.50;;;;;;4920594;29;20032;-76
2022/08/05 11:52:30;;;;;;;2.75;0.47;;;29.30;29.80;;;;;;4918295;29;20032;-76
2022/08/05 11:54:59;;;;;;;1.50;0.40;;;29.50;29.20;;;;;;4901628;29;20039;-76
2022/08/05 11:57:29;;;;;;;3.88;0.75;;;29.30;28.90;;;;;;4901527;29;20036;-76
2022/08/05 11:59:54;;;;;;;;;;;29.30;29.60;;;;;;4920658;29;20142;-76
2022/08/05 12:02:31;;;;;;;3.15;0.90;;;29.20;29.20;;;;;;4920251;29;19923;-76
2022/08/05 12:04:57;;;;;;;1.73;0.70;;;29.10;29.20;;;;;;4902719;29;20044;-76
2022/08/05 12:07:23;;;;;;;1.95;0.60;;;29.30;29.10;;;;;;4901607;29;20029;-76
2022/08/05 12:09:53;;;;;;;3.40;0.47;;;29.20;28.80;;;;;;4911495;29;20030;-76
2022/08/05 12:12:23;;;;;;;2.80;0.73;;;29.20;28.10;;;;;;4901362;29;20017;-76
2022/08/05 12:14:49;;;;;;;3.15;0.70;;;28.90;28.50;;;;;;4919201;29;20035;-76
2022/08/05 12:17:15;;;;;;;6.05;0.60;;;29.00;29.20;;;;;;4920071;29;20036;-76
2022/08/05 12:19:47;;;;;;;1.92;0.40;;;29.20;29.10;;;;;;4907529;29;20139;-76
2022/08/05 12:22:14;;;;;;;3.80;1.02;;;29.00;28.60;;;;;;4901076;29;20036;-76
2022/08/05 12:24:45;;;;;;;1.58;0.55;;;29.10;28.90;;;;;;4911975;29;20032;-76
2022/08/05 12:27:19;;;;;;;1.88;0.50;;;29.20;29.00;;;;;;4899512;29;20032;-76
2022/08/05 12:29:59;;;;;;;3.63;0.70;;;29.40;29.90;;;;;;4900609;29;20056;-76
2022/08/05 12:32:24;;;;;;;1.92;0.57;;;29.20;30.60;;;;;;4900400;29;20025;-76
2022/08/05 12:34:50;;;;;;;1.73;0.35;;;29.50;30.20;;;;;;4911044;29;20038;-76
2022/08/05 12:37:16;;;;;;;2.78;0.70;;;29.60;29.90;;;;;;4914931;29;20039;-76
2022/08/05 12:39:42;;;;;;;2.00;0.60;;;29.40;29.60;;;;;;4900818;29;20123;-76
2022/08/05 12:42:15;;;;;;;2.47;0.70;;;29.40;30.20;;;;;;4900798;29;20033;-76
2022/08/05 12:44:43;;;;;;;4.40;0.60;;;29.00;30.00;;;;;;4900536;29;20036;-76
2022/08/05 12:47:08;;;;;;;3.05;0.70;;;28.70;30.80;;;;;;4900700;29;20416;-76
2022/08/05 12:49:46;;;;;;;1.67;0.60;;;28.40;30.70;;;;;;4900260;29;20030;-76
2022/08/05 12:52:16;;;;;;;6.35;0.60;;;28.30;31.10;;;;;;4915123;29;20040;-76
2022/08/05 12:54:45;;;;;;;2.22;0.70;;;28.20;31.40;;;;;;4900366;29;20493;-76
2022/08/05 12:57:11;;;;;;;2.22;0.55;;;28.40;31.50;;;;;;4900763;29;20060;-76
2022/08/05 12:59:45;;;;;;;2.90;0.47;;;28.50;31.80;;;;;;4900510;29;20052;-76
2022/08/05 13:02:14;;;;;;;2.03;0.50;;;28.70;31.40;;;;;;4914544;29;20536;-76